Terminal Aerodrome Forecast
Issued by NWS

Home | Current Version | Previous Version | Text Only | Print | Product List | Glossary Off
Versions: 1 2 3 4 5 6 7 8 9 10 11 12 13 14 15 16 17 18 19 20 21 22 23 24 25

000
FTUS43 KABR 230240 AAC
TAFMBG
TAF AMD
KMBG 230240Z 2303/2324 01006KT 2SM -SN OVC015
      TEMPO 2303/2304 1SM -SN
     FM230400 09005KT 5SM -SN OVC010
     FM230600 VRB03KT P6SM OVC015
     FM231700 29004KT P6SM SKC=

USA.gov is the U.S. government's official web portal to all federal, state and local government web resources and services.